createdAt,value
2018-07-08T00:03:18.402Z,21.40
2018-07-08T00:07:21.313Z,21.20
2018-07-08T00:11:23.692Z,21.30
2018-07-08T00:15:26.132Z,21.20
2018-07-08T00:19:28.427Z,21.00
2018-07-08T00:23:30.680Z,21.00
2018-07-08T00:27:33.239Z,20.90
2018-07-08T00:31:35.431Z,20.90
2018-07-08T00:35:37.807Z,20.60
2018-07-08T00:39:40.049Z,20.70
2018-07-08T00:43:42.319Z,20.60
2018-07-08T00:47:45.192Z,20.40
2018-07-08T00:51:47.460Z,20.40
2018-07-08T00:55:49.663Z,20.30
2018-07-08T00:59:51.945Z,20.20
2018-07-08T01:03:54.094Z,20.20
2018-07-08T01:07:56.441Z,20.20
2018-07-08T01:11:58.639Z,20.10
2018-07-08T01:16:00.792Z,20.20
2018-07-08T01:20:03.078Z,20.20
2018-07-08T01:24:05.588Z,20.10
2018-07-08T01:28:07.780Z,20.00
2018-07-08T01:32:10.005Z,19.80
2018-07-08T01:36:12.263Z,19.70
2018-07-08T01:40:14.446Z,19.80
2018-07-08T01:44:16.677Z,19.70
2018-07-08T01:48:18.981Z,19.70
2018-07-08T01:52:22.775Z,19.60
2018-07-08T01:56:25.511Z,19.50
2018-07-08T02:00:27.751Z,19.50
2018-07-08T02:04:29.951Z,19.30
2018-07-08T02:08:32.199Z,19.40
2018-07-08T02:12:34.361Z,19.40
2018-07-08T02:16:36.528Z,19.40
2018-07-08T02:20:38.803Z,19.30
2018-07-08T02:24:41.122Z,19.30
2018-07-08T02:28:43.443Z,18.60
2018-07-08T02:32:45.598Z,18.40
2018-07-08T02:36:47.825Z,18.80
2018-07-08T02:40:50.094Z,18.80
2018-07-08T02:44:52.785Z,19.10
2018-07-08T02:48:55.046Z,19.10
2018-07-08T02:52:57.211Z,19.10
2018-07-08T02:56:59.982Z,18.90
2018-07-08T03:01:02.880Z,18.80
2018-07-08T03:05:05.123Z,18.90
2018-07-08T03:09:08.336Z,18.70
2018-07-08T03:13:10.521Z,18.50
2018-07-08T03:17:12.697Z,18.60
2018-07-08T03:21:14.967Z,18.70
2018-07-08T03:25:17.877Z,18.80
2018-07-08T03:29:20.215Z,18.80
2018-07-08T03:33:22.515Z,18.80
2018-07-08T03:37:24.744Z,18.80
2018-07-08T03:41:26.950Z,18.70
2018-07-08T03:45:29.255Z,18.70
2018-07-08T03:49:31.448Z,18.70
2018-07-08T03:53:34.038Z,18.70
2018-07-08T03:57:36.214Z,18.70
2018-07-08T04:01:39.331Z,18.70
2018-07-08T04:05:42.211Z,18.80
2018-07-08T04:09:44.500Z,18.80
2018-07-08T04:13:46.811Z,18.80
2018-07-08T04:17:53.871Z,19.00
2018-07-08T04:21:56.056Z,19.00
2018-07-08T04:25:58.443Z,19.20
2018-07-08T04:30:00.644Z,19.20
2018-07-08T04:34:02.883Z,19.20
2018-07-08T04:38:05.758Z,19.30
2018-07-08T04:42:08.671Z,19.50
2018-07-08T04:46:11.071Z,19.40
2018-07-08T04:50:13.263Z,19.50
2018-07-08T04:54:16.203Z,19.80
2018-07-08T04:58:18.416Z,20.00
2018-07-08T05:02:20.598Z,20.20
2018-07-08T05:06:22.775Z,20.50
2018-07-08T05:10:25.040Z,20.70
2018-07-08T05:14:27.810Z,21.00
2018-07-08T05:18:29.978Z,21.20
2018-07-08T05:22:32.201Z,21.60
2018-07-08T05:26:34.417Z,21.70
2018-07-08T05:30:37.326Z,21.80
2018-07-08T05:34:39.539Z,21.90
2018-07-08T05:38:41.779Z,21.10
2018-07-08T05:42:43.971Z,21.10
2018-07-08T05:46:46.141Z,21.90
2018-07-08T05:50:48.359Z,21.90
2018-07-08T05:54:50.632Z,22.50
2018-07-08T05:58:52.944Z,24.80
2018-07-08T06:02:55.180Z,27.20
2018-07-08T06:06:57.914Z,29.20
2018-07-08T06:11:00.182Z,28.10
2018-07-08T06:15:03.502Z,26.60
2018-07-08T06:19:05.763Z,24.70
2018-07-08T06:23:08.623Z,25.90
2018-07-08T06:27:11.496Z,26.80
2018-07-08T06:31:13.700Z,25.60
2018-07-08T06:35:15.937Z,23.10
2018-07-08T06:39:18.496Z,22.80
2018-07-08T06:43:20.715Z,21.20
2018-07-08T06:48:52.544Z,22.20
2018-07-08T06:52:54.768Z,20.70
2018-07-08T06:56:57.007Z,20.90
2018-07-08T07:00:59.236Z,20.70
2018-07-08T07:05:01.609Z,21.70
2018-07-08T07:09:06.316Z,21.40
2018-07-08T07:13:08.552Z,20.80
2018-07-08T07:17:10.869Z,20.20
2018-07-08T07:21:13.806Z,20.30
2018-07-08T07:25:15.971Z,20.40
2018-07-08T07:29:18.249Z,20.30
2018-07-08T07:33:20.565Z,21.90
2018-07-08T07:37:22.820Z,22.10
2018-07-08T07:41:25.120Z,22.40
2018-07-08T07:45:27.363Z,22.90
2018-07-08T07:49:29.587Z,23.20
2018-07-08T07:53:31.954Z,22.10
2018-07-08T07:57:34.139Z,22.00
2018-07-08T08:01:36.830Z,22.90
2018-07-08T08:05:39.143Z,22.90
2018-07-08T08:09:41.383Z,22.30
2018-07-08T08:13:57.822Z,23.00
2018-07-08T08:18:00.011Z,22.50
2018-07-08T08:22:02.788Z,24.40
2018-07-08T08:26:05.019Z,23.30
2018-07-08T08:30:07.377Z,21.70
2018-07-08T08:35:13.956Z,21.10
2018-07-08T08:39:16.156Z,22.30
2018-07-08T08:43:18.439Z,22.70
2018-07-08T08:47:20.966Z,23.40
2018-07-08T08:51:23.284Z,23.50
2018-07-08T08:55:25.506Z,23.10
2018-07-08T08:59:27.739Z,23.50
2018-07-08T09:03:29.927Z,22.60
2018-07-08T09:07:32.131Z,24.30
2018-07-08T09:11:34.419Z,22.40
2018-07-08T09:15:36.589Z,23.30
2018-07-08T09:19:39.415Z,24.50
2018-07-08T09:23:41.675Z,26.20
2018-07-08T09:27:44.607Z,25.00
2018-07-08T09:31:46.854Z,24.70
2018-07-08T09:35:49.625Z,23.60
2018-07-08T09:39:51.859Z,24.10
2018-07-08T09:43:54.681Z,25.70
2018-07-08T09:47:56.949Z,24.90
2018-07-08T09:51:59.283Z,25.30
2018-07-08T09:56:02.520Z,24.60
2018-07-08T10:00:05.273Z,26.80
2018-07-08T10:04:09.147Z,26.80
2018-07-08T10:08:11.436Z,27.70
2018-07-08T10:12:13.656Z,26.80
2018-07-08T10:16:15.938Z,27.70
2018-07-08T10:20:18.111Z,24.80
2018-07-08T10:24:20.355Z,24.00
2018-07-08T10:28:23.648Z,24.10
2018-07-08T10:32:25.866Z,25.30
2018-07-08T10:36:28.135Z,24.90
2018-07-08T10:40:30.692Z,26.70
2018-07-08T10:44:32.909Z,26.70
2018-07-08T10:48:35.206Z,27.70
2018-07-08T10:52:37.473Z,27.10
2018-07-08T10:56:39.872Z,27.50
2018-07-08T11:00:42.156Z,26.20
2018-07-08T11:04:45.134Z,24.90
2018-07-08T11:08:47.431Z,24.50
2018-07-08T11:12:49.667Z,25.20
2018-07-08T11:16:52.058Z,25.40
2018-07-08T11:20:54.276Z,25.50
2018-07-08T11:24:56.766Z,26.50
2018-07-08T11:28:59.294Z,26.40
2018-07-08T11:33:01.568Z,24.90
2018-07-08T11:37:03.827Z,25.50
2018-07-08T11:41:06.136Z,25.20
2018-07-08T11:45:08.405Z,26.10
2018-07-08T11:49:10.656Z,26.80
2018-07-08T11:53:12.879Z,25.40
2018-07-08T11:57:15.117Z,25.70
2018-07-08T12:01:17.451Z,25.80
2018-07-08T12:05:19.644Z,26.90
2018-07-08T12:09:21.888Z,28.50
2018-07-08T12:13:24.082Z,29.50
2018-07-08T12:17:26.311Z,30.30
2018-07-08T12:21:28.501Z,32.10
2018-07-08T12:25:30.713Z,32.50
2018-07-08T12:29:33.429Z,32.60
2018-07-08T12:33:35.795Z,32.10
2018-07-08T12:37:38.116Z,32.10
2018-07-08T12:41:40.985Z,31.70
2018-07-08T12:45:43.196Z,29.70
2018-07-08T12:49:45.515Z,31.00
2018-07-08T12:53:47.755Z,33.50
2018-07-08T12:57:49.982Z,31.20
2018-07-08T13:01:52.167Z,30.20
2018-07-08T13:05:54.374Z,31.30
2018-07-08T13:09:56.757Z,32.90
2018-07-08T13:13:59.319Z,31.00
2018-07-08T13:18:01.497Z,29.20
2018-07-08T13:22:09.990Z,29.70
2018-07-08T13:26:12.683Z,32.20
2018-07-08T13:30:15.446Z,34.20
2018-07-08T13:34:17.642Z,32.00
2018-07-08T13:38:19.915Z,33.40
2018-07-08T13:42:22.134Z,32.80
2018-07-08T13:46:24.344Z,33.00
2018-07-08T13:50:26.555Z,30.40
2018-07-08T13:54:28.778Z,30.80
2018-07-08T13:58:31.465Z,31.00
2018-07-08T14:02:33.852Z,33.50
2018-07-08T14:06:36.260Z,30.70
2018-07-08T14:10:39.145Z,30.10
2018-07-08T14:14:42.851Z,30.80
2018-07-08T14:18:45.063Z,32.60
2018-07-08T14:22:47.333Z,35.00
2018-07-08T14:26:49.543Z,36.50
2018-07-08T14:30:52.493Z,34.90
2018-07-08T14:34:54.745Z,33.80
2018-07-08T14:38:57.044Z,31.80
2018-07-08T14:42:59.238Z,34.00
2018-07-08T14:47:01.449Z,32.80
2018-07-08T14:51:03.643Z,31.90
2018-07-08T14:55:05.876Z,34.90
2018-07-08T14:59:08.531Z,35.70
2018-07-08T15:03:10.994Z,35.20
2018-07-08T15:07:13.261Z,36.90
2018-07-08T15:11:15.979Z,36.40
2018-07-08T15:15:18.267Z,34.90
2018-07-08T15:19:20.472Z,34.90
2018-07-08T15:23:23.376Z,32.70
2018-07-08T15:27:25.664Z,31.40
2018-07-08T15:31:27.880Z,32.70
2018-07-08T15:35:30.123Z,33.40
2018-07-08T15:39:32.474Z,34.70
2018-07-08T15:43:34.644Z,34.80
2018-07-08T15:47:36.880Z,33.30
2018-07-08T15:51:39.096Z,32.20
2018-07-08T15:55:41.281Z,31.90
2018-07-08T15:59:43.672Z,31.00
2018-07-08T16:03:45.943Z,32.60
2018-07-08T16:07:48.251Z,31.50
2018-07-08T16:11:50.529Z,32.80
2018-07-08T16:15:52.784Z,32.20
2018-07-08T16:19:55.007Z,30.60
2018-07-08T16:23:57.204Z,28.80
2018-07-08T16:27:59.935Z,28.70
2018-07-08T16:32:03.477Z,28.00
2018-07-08T16:36:05.694Z,29.10
2018-07-08T16:40:08.011Z,28.20
2018-07-08T16:44:10.196Z,29.80
2018-07-08T16:48:12.730Z,27.90
2018-07-08T16:52:14.946Z,29.80
2018-07-08T16:56:17.278Z,27.70
2018-07-08T17:00:19.457Z,27.50
2018-07-08T17:04:21.789Z,26.90
2018-07-08T17:08:24.228Z,26.90
2018-07-08T17:12:26.334Z,26.60
2018-07-08T17:16:28.550Z,26.90
2018-07-08T17:20:30.781Z,27.10
2018-07-08T17:24:33.181Z,26.90
2018-07-08T17:28:35.368Z,27.40
2018-07-08T17:32:37.695Z,28.00
2018-07-08T17:36:40.213Z,26.20
2018-07-08T17:40:42.406Z,26.50
2018-07-08T17:44:44.658Z,26.40
2018-07-08T17:48:46.966Z,25.50
2018-07-08T17:52:49.392Z,26.50
2018-07-08T17:56:51.655Z,25.70
2018-07-08T18:00:53.936Z,25.40
2018-07-08T18:04:56.131Z,25.40
2018-07-08T18:08:58.437Z,25.90
2018-07-08T18:13:00.686Z,25.30
2018-07-08T18:17:02.948Z,25.10
2018-07-08T18:21:05.221Z,25.10
2018-07-08T18:25:07.671Z,24.90
2018-07-08T18:29:10.816Z,24.90
2018-07-08T18:33:13.089Z,25.00
2018-07-08T18:37:15.549Z,24.50
2018-07-08T18:41:17.746Z,24.30
2018-07-08T18:45:20.025Z,24.40
2018-07-08T18:49:22.256Z,25.00
2018-07-08T18:53:24.556Z,24.60
2018-07-08T18:57:26.747Z,24.50
2018-07-08T19:01:29.522Z,24.60
2018-07-08T19:05:32.279Z,24.70
2018-07-08T19:09:34.493Z,25.20
2018-07-08T19:13:36.782Z,24.90
2018-07-08T19:17:39.148Z,25.10
2018-07-08T19:21:41.827Z,24.00
2018-07-08T19:25:44.392Z,24.70
2018-07-08T19:29:46.650Z,24.00
2018-07-08T19:33:48.842Z,24.40
2018-07-08T19:37:51.658Z,24.10
2018-07-08T19:41:53.909Z,24.30
2018-07-08T19:45:56.143Z,24.30
2018-07-08T19:49:58.448Z,24.70
2018-07-08T19:54:01.240Z,25.20
2018-07-08T19:58:03.452Z,25.50
2018-07-08T20:02:05.681Z,26.00
2018-07-08T20:06:07.994Z,26.80
2018-07-08T20:10:10.250Z,26.90
2018-07-08T20:14:12.430Z,26.40
2018-07-08T20:18:14.674Z,26.40
2018-07-08T20:22:16.884Z,26.50
2018-07-08T20:26:19.537Z,26.40
2018-07-08T20:30:21.888Z,26.20
2018-07-08T20:34:24.240Z,25.90
2018-07-08T20:38:26.423Z,25.70
2018-07-08T20:42:28.790Z,25.60
2018-07-08T20:46:31.048Z,25.50
2018-07-08T20:50:33.335Z,25.40
2018-07-08T20:54:35.591Z,25.20
2018-07-08T20:58:37.777Z,25.00
2018-07-08T21:02:39.998Z,24.90
2018-07-08T21:06:42.327Z,24.70
2018-07-08T21:10:44.595Z,24.60
2018-07-08T21:14:46.822Z,24.40
2018-07-08T21:18:49.232Z,24.20
2018-07-08T21:22:52.063Z,24.20
2018-07-08T21:26:54.239Z,24.10
2018-07-08T21:30:56.545Z,23.90
2018-07-08T21:34:58.901Z,23.80
2018-07-08T21:39:01.141Z,23.50
2018-07-08T21:43:03.394Z,23.20
2018-07-08T21:47:05.703Z,23.30
2018-07-08T21:51:07.911Z,23.40
2018-07-08T21:55:10.042Z,23.20
2018-07-08T21:59:12.220Z,23.10
2018-07-08T22:03:14.503Z,22.90
2018-07-08T22:07:24.008Z,22.50
2018-07-08T22:11:26.208Z,22.30
2018-07-08T22:15:28.500Z,22.50
2018-07-08T22:19:30.608Z,22.50
2018-07-08T22:23:33.195Z,22.50
2018-07-08T22:27:35.462Z,22.50
2018-07-08T22:31:37.694Z,22.40
2018-07-08T22:35:39.909Z,22.30
2018-07-08T22:39:42.148Z,22.30
2018-07-08T22:43:44.462Z,22.20
2018-07-08T22:47:46.624Z,22.00
2018-07-08T22:51:48.800Z,22.00
2018-07-08T22:55:51.005Z,22.00
2018-07-08T23:00:04.602Z,21.80
2018-07-08T23:04:07.129Z,21.50
2018-07-08T23:08:09.331Z,21.50
2018-07-08T23:12:11.633Z,21.40
2018-07-08T23:16:14.278Z,21.10
2018-07-08T23:20:16.436Z,21.10
2018-07-08T23:24:18.588Z,21.00
2018-07-08T23:28:21.702Z,20.90
2018-07-08T23:32:23.971Z,21.20
2018-07-08T23:36:26.134Z,21.40
2018-07-08T23:40:28.305Z,21.40
2018-07-08T23:44:30.547Z,21.20
2018-07-08T23:48:32.989Z,21.00
2018-07-08T23:52:35.239Z,21.10
2018-07-08T23:56:37.468Z,20.90
